sensor_id;sensor_type;location;lat;lon;timestamp;temperature;humidity
65972;SHT31;52726;48.852;9.152;2022-09-09T00:04:29;14.02;82.20
65972;SHT31;52726;48.852;9.152;2022-09-09T00:09:29;14.02;81.30
65972;SHT31;52726;48.852;9.152;2022-09-09T00:12:02;14.06;81.82
65972;SHT31;52726;48.852;9.152;2022-09-09T00:17:09;14.07;81.38
65972;SHT31;52726;48.852;9.152;2022-09-09T00:19:46;14.07;81.68
65972;SHT31;52726;48.852;9.152;2022-09-09T00:22:18;14.10;82.34
65972;SHT31;52726;48.852;9.152;2022-09-09T00:24:51;14.07;82.15
65972;SHT31;52726;48.852;9.152;2022-09-09T00:30:11;14.16;81.88
65972;SHT31;52726;48.852;9.152;2022-09-09T00:32:37;14.16;81.90
65972;SHT31;52726;48.852;9.152;2022-09-09T00:37:35;14.20;81.14
65972;SHT31;52726;48.852;9.152;2022-09-09T00:40:07;14.21;81.84
65972;SHT31;52726;48.852;9.152;2022-09-09T00:42:42;14.21;81.51
65972;SHT31;52726;48.852;9.152;2022-09-09T00:47:53;14.30;82.07
65972;SHT31;52726;48.852;9.152;2022-09-09T00:56:13;14.37;81.53
65972;SHT31;52726;48.852;9.152;2022-09-09T00:58:43;14.48;80.96
65972;SHT31;52726;48.852;9.152;2022-09-09T01:01:15;14.54;81.15
65972;SHT31;52726;48.852;9.152;2022-09-09T01:03:54;14.58;80.79
65972;SHT31;52726;48.852;9.152;2022-09-09T01:06:30;14.62;80.52
65972;SHT31;52726;48.852;9.152;2022-09-09T01:17:33;14.75;79.62
65972;SHT31;52726;48.852;9.152;2022-09-09T01:28:21;14.86;78.22
65972;SHT31;52726;48.852;9.152;2022-09-09T01:30:47;14.88;79.31
65972;SHT31;52726;48.852;9.152;2022-09-09T01:33:16;14.86;79.13
65972;SHT31;52726;48.852;9.152;2022-09-09T01:35:58;14.90;78.63
65972;SHT31;52726;48.852;9.152;2022-09-09T01:38:26;14.97;77.35
65972;SHT31;52726;48.852;9.152;2022-09-09T01:40:53;15.00;78.57
65972;SHT31;52726;48.852;9.152;2022-09-09T01:43:20;14.96;78.47
65972;SHT31;52726;48.852;9.152;2022-09-09T01:45:49;14.93;79.82
65972;SHT31;52726;48.852;9.152;2022-09-09T01:48:16;14.89;80.02
65972;SHT31;52726;48.852;9.152;2022-09-09T01:50:42;14.89;79.76
65972;SHT31;52726;48.852;9.152;2022-09-09T01:53:08;14.86;79.57
65972;SHT31;52726;48.852;9.152;2022-09-09T01:55:38;14.85;79.41
65972;SHT31;52726;48.852;9.152;2022-09-09T02:04:14;14.86;77.81
65972;SHT31;52726;48.852;9.152;2022-09-09T02:06:40;14.89;77.99
65972;SHT31;52726;48.852;9.152;2022-09-09T02:09:07;14.88;77.50
65972;SHT31;52726;48.852;9.152;2022-09-09T02:11:35;14.90;76.84
65972;SHT31;52726;48.852;9.152;2022-09-09T02:14:22;14.90;76.98
65972;SHT31;52726;48.852;9.152;2022-09-09T02:17:02;14.92;76.48
65972;SHT31;52726;48.852;9.152;2022-09-09T02:19:37;14.93;76.89
65972;SHT31;52726;48.852;9.152;2022-09-09T02:22:04;14.93;76.09
65972;SHT31;52726;48.852;9.152;2022-09-09T02:24:33;15.02;76.09
65972;SHT31;52726;48.852;9.152;2022-09-09T02:27:02;15.00;76.11
65972;SHT31;52726;48.852;9.152;2022-09-09T02:29:35;15.07;76.10
65972;SHT31;52726;48.852;9.152;2022-09-09T02:32:06;15.03;76.19
65972;SHT31;52726;48.852;9.152;2022-09-09T02:34:36;14.99;76.58
65972;SHT31;52726;48.852;9.152;2022-09-09T02:37:03;14.96;77.02
65972;SHT31;52726;48.852;9.152;2022-09-09T02:39:31;14.92;76.47
65972;SHT31;52726;48.852;9.152;2022-09-09T02:41:57;14.90;76.58
65972;SHT31;52726;48.852;9.152;2022-09-09T02:44:22;14.82;76.98
65972;SHT31;52726;48.852;9.152;2022-09-09T02:52:15;14.82;76.97
65972;SHT31;52726;48.852;9.152;2022-09-09T02:54:44;14.80;77.71
65972;SHT31;52726;48.852;9.152;2022-09-09T02:57:28;14.78;77.21
65972;SHT31;52726;48.852;9.152;2022-09-09T02:59:58;14.79;77.22
65972;SHT31;52726;48.852;9.152;2022-09-09T03:02:23;14.76;77.55
65972;SHT31;52726;48.852;9.152;2022-09-09T03:04:49;14.79;77.54
65972;SHT31;52726;48.852;9.152;2022-09-09T03:07:17;14.83;76.77
65972;SHT31;52726;48.852;9.152;2022-09-09T03:09:43;14.83;77.10
65972;SHT31;52726;48.852;9.152;2022-09-09T03:12:10;14.85;77.22
65972;SHT31;52726;48.852;9.152;2022-09-09T03:14:36;14.80;77.04
65972;SHT31;52726;48.852;9.152;2022-09-09T03:17:01;14.79;77.12
65972;SHT31;52726;48.852;9.152;2022-09-09T03:19:27;14.76;77.01
65972;SHT31;52726;48.852;9.152;2022-09-09T03:21:53;14.75;77.09
65972;SHT31;52726;48.852;9.152;2022-09-09T03:24:18;14.75;76.43
65972;SHT31;52726;48.852;9.152;2022-09-09T03:26:44;14.80;76.64
65972;SHT31;52726;48.852;9.152;2022-09-09T03:29:11;14.78;77.14
65972;SHT31;52726;48.852;9.152;2022-09-09T03:31:37;14.72;77.50
65972;SHT31;52726;48.852;9.152;2022-09-09T03:34:03;14.67;77.30
65972;SHT31;52726;48.852;9.152;2022-09-09T03:36:28;14.69;76.45
65972;SHT31;52726;48.852;9.152;2022-09-09T03:38:54;14.69;77.18
65972;SHT31;52726;48.852;9.152;2022-09-09T03:41:23;14.67;77.15
65972;SHT31;52726;48.852;9.152;2022-09-09T03:43:52;14.62;77.13
65972;SHT31;52726;48.852;9.152;2022-09-09T03:46:22;14.62;77.06
65972;SHT31;52726;48.852;9.152;2022-09-09T03:48:48;14.55;77.72
65972;SHT31;52726;48.852;9.152;2022-09-09T03:51:13;14.55;77.52
65972;SHT31;52726;48.852;9.152;2022-09-09T03:53:39;14.55;77.84
65972;SHT31;52726;48.852;9.152;2022-09-09T03:56:06;14.58;77.29
65972;SHT31;52726;48.852;9.152;2022-09-09T03:58:36;14.58;77.14
65972;SHT31;52726;48.852;9.152;2022-09-09T04:01:04;14.58;77.05
65972;SHT31;52726;48.852;9.152;2022-09-09T04:03:30;14.67;76.85
65972;SHT31;52726;48.852;9.152;2022-09-09T04:05:57;14.73;76.39
65972;SHT31;52726;48.852;9.152;2022-09-09T04:08:24;14.79;76.07
65972;SHT31;52726;48.852;9.152;2022-09-09T04:10:53;14.95;75.12
65972;SHT31;52726;48.852;9.152;2022-09-09T04:13:19;15.06;75.16
65972;SHT31;52726;48.852;9.152;2022-09-09T04:15:51;15.17;73.98
65972;SHT31;52726;48.852;9.152;2022-09-09T04:18:16;15.23;73.80
65972;SHT31;52726;48.852;9.152;2022-09-09T04:20:42;15.26;73.46
65972;SHT31;52726;48.852;9.152;2022-09-09T04:23:08;15.33;73.91
65972;SHT31;52726;48.852;9.152;2022-09-09T04:25:34;15.40;73.54
65972;SHT31;52726;48.852;9.152;2022-09-09T04:27:59;15.41;72.96
65972;SHT31;52726;48.852;9.152;2022-09-09T04:30:24;15.45;73.79
65972;SHT31;52726;48.852;9.152;2022-09-09T04:32:50;15.48;72.91
65972;SHT31;52726;48.852;9.152;2022-09-09T04:35:16;15.51;72.60
65972;SHT31;52726;48.852;9.152;2022-09-09T04:37:41;15.51;72.70
65972;SHT31;52726;48.852;9.152;2022-09-09T04:40:07;15.51;73.57
65972;SHT31;52726;48.852;9.152;2022-09-09T04:42:38;15.47;73.93
65972;SHT31;52726;48.852;9.152;2022-09-09T04:45:05;15.45;73.82
65972;SHT31;52726;48.852;9.152;2022-09-09T04:47:30;15.43;73.82
65972;SHT31;52726;48.852;9.152;2022-09-09T04:49:55;15.37;74.73
65972;SHT31;52726;48.852;9.152;2022-09-09T04:52:21;15.30;74.87
65972;SHT31;52726;48.852;9.152;2022-09-09T04:54:47;15.23;75.42
65972;SHT31;52726;48.852;9.152;2022-09-09T04:57:13;15.16;75.32
65972;SHT31;52726;48.852;9.152;2022-09-09T04:59:38;15.09;75.17
65972;SHT31;52726;48.852;9.152;2022-09-09T05:02:05;15.06;76.51
65972;SHT31;52726;48.852;9.152;2022-09-09T05:04:30;15.03;76.44
65972;SHT31;52726;48.852;9.152;2022-09-09T05:06:55;15.00;76.83
65972;SHT31;52726;48.852;9.152;2022-09-09T05:09:21;14.95;77.23
65972;SHT31;52726;48.852;9.152;2022-09-09T05:11:46;14.86;77.66
65972;SHT31;52726;48.852;9.152;2022-09-09T05:14:11;14.83;77.82
65972;SHT31;52726;48.852;9.152;2022-09-09T05:16:37;14.85;77.96
65972;SHT31;52726;48.852;9.152;2022-09-09T05:19:03;14.85;78.05
65972;SHT31;52726;48.852;9.152;2022-09-09T05:21:28;14.89;78.18
65972;SHT31;52726;48.852;9.152;2022-09-09T05:23:55;14.90;77.65
65972;SHT31;52726;48.852;9.152;2022-09-09T05:26:22;14.92;77.42
65972;SHT31;52726;48.852;9.152;2022-09-09T05:28:48;15.00;77.62
65972;SHT31;52726;48.852;9.152;2022-09-09T05:31:15;15.03;77.22
65972;SHT31;52726;48.852;9.152;2022-09-09T05:33:42;15.07;76.99
65972;SHT31;52726;48.852;9.152;2022-09-09T05:36:11;15.14;77.62
65972;SHT31;52726;48.852;9.152;2022-09-09T05:38:40;15.23;76.72
65972;SHT31;52726;48.852;9.152;2022-09-09T05:41:06;15.26;77.18
65972;SHT31;52726;48.852;9.152;2022-09-09T05:43:32;15.31;76.42
65972;SHT31;52726;48.852;9.152;2022-09-09T05:46:04;15.36;76.07
65972;SHT31;52726;48.852;9.152;2022-09-09T05:48:31;15.43;76.13
65972;SHT31;52726;48.852;9.152;2022-09-09T05:50:57;15.47;76.19
65972;SHT31;52726;48.852;9.152;2022-09-09T05:53:23;15.53;76.78
65972;SHT31;52726;48.852;9.152;2022-09-09T05:55:48;15.58;75.76
65972;SHT31;52726;48.852;9.152;2022-09-09T05:58:14;15.66;75.65
65972;SHT31;52726;48.852;9.152;2022-09-09T06:00:42;15.68;74.82
65972;SHT31;52726;48.852;9.152;2022-09-09T06:03:10;15.75;75.63
65972;SHT31;52726;48.852;9.152;2022-09-09T06:05:36;15.78;75.55
65972;SHT31;52726;48.852;9.152;2022-09-09T06:08:01;15.85;76.28
65972;SHT31;52726;48.852;9.152;2022-09-09T06:10:26;15.91;75.69
65972;SHT31;52726;48.852;9.152;2022-09-09T06:12:53;15.95;75.97
65972;SHT31;52726;48.852;9.152;2022-09-09T06:15:18;16.01;74.40
65972;SHT31;52726;48.852;9.152;2022-09-09T06:17:43;16.05;75.01
65972;SHT31;52726;48.852;9.152;2022-09-09T06:20:10;16.10;75.14
65972;SHT31;52726;48.852;9.152;2022-09-09T06:22:35;16.14;75.23
65972;SHT31;52726;48.852;9.152;2022-09-09T06:25:01;16.23;75.66
65972;SHT31;52726;48.852;9.152;2022-09-09T06:27:27;16.27;75.96
65972;SHT31;52726;48.852;9.152;2022-09-09T06:29:53;16.29;74.62
65972;SHT31;52726;48.852;9.152;2022-09-09T06:32:18;16.36;74.68
65972;SHT31;52726;48.852;9.152;2022-09-09T06:34:44;16.43;74.01
65972;SHT31;52726;48.852;9.152;2022-09-09T06:37:10;16.50;75.38
65972;SHT31;52726;48.852;9.152;2022-09-09T06:39:35;16.54;74.26
65972;SHT31;52726;48.852;9.152;2022-09-09T06:42:01;16.56;73.66
65972;SHT31;52726;48.852;9.152;2022-09-09T06:44:26;16.60;73.06
65972;SHT31;52726;48.852;9.152;2022-09-09T06:46:58;16.65;73.51
65972;SHT31;52726;48.852;9.152;2022-09-09T06:49:23;16.71;73.19
65972;SHT31;52726;48.852;9.152;2022-09-09T06:51:49;16.75;72.35
65972;SHT31;52726;48.852;9.152;2022-09-09T06:54:14;16.82;72.68
65972;SHT31;52726;48.852;9.152;2022-09-09T06:56:41;16.88;72.17
65972;SHT31;52726;48.852;9.152;2022-09-09T06:59:08;16.89;71.93
65972;SHT31;52726;48.852;9.152;2022-09-09T07:01:38;16.92;72.37
65972;SHT31;52726;48.852;9.152;2022-09-09T07:04:06;16.96;71.96
65972;SHT31;52726;48.852;9.152;2022-09-09T07:06:38;17.02;72.28
65972;SHT31;52726;48.852;9.152;2022-09-09T07:09:09;17.02;72.07
65972;SHT31;52726;48.852;9.152;2022-09-09T07:11:41;17.11;72.14
65972;SHT31;52726;48.852;9.152;2022-09-09T07:14:08;17.20;72.65
65972;SHT31;52726;48.852;9.152;2022-09-09T07:16:34;17.30;71.73
65972;SHT31;52726;48.852;9.152;2022-09-09T07:19:02;17.40;71.54
65972;SHT31;52726;48.852;9.152;2022-09-09T07:21:29;17.53;71.80
65972;SHT31;52726;48.852;9.152;2022-09-09T07:23:55;17.67;71.28
65972;SHT31;52726;48.852;9.152;2022-09-09T07:26:22;17.77;70.14
65972;SHT31;52726;48.852;9.152;2022-09-09T07:28:48;17.91;70.13
65972;SHT31;52726;48.852;9.152;2022-09-09T07:31:21;18.02;69.25
65972;SHT31;52726;48.852;9.152;2022-09-09T07:33:48;18.06;70.57
65972;SHT31;52726;48.852;9.152;2022-09-09T07:36:16;18.09;69.90
65972;SHT31;52726;48.852;9.152;2022-09-09T07:38:53;18.35;69.02
65972;SHT31;52726;48.852;9.152;2022-09-09T07:41:22;18.55;68.71
65972;SHT31;52726;48.852;9.152;2022-09-09T07:43:49;19.11;66.69
65972;SHT31;52726;48.852;9.152;2022-09-09T07:46:17;19.21;66.39
65972;SHT31;52726;48.852;9.152;2022-09-09T07:48:48;19.35;65.85
65972;SHT31;52726;48.852;9.152;2022-09-09T07:51:25;19.26;66.79
65972;SHT31;52726;48.852;9.152;2022-09-09T07:53:55;19.04;66.36
65972;SHT31;52726;48.852;9.152;2022-09-09T07:56:31;20.17;63.32
65972;SHT31;52726;48.852;9.152;2022-09-09T07:58:57;21.04;61.02
65972;SHT31;52726;48.852;9.152;2022-09-09T08:04:45;22.65;57.48
65972;SHT31;52726;48.852;9.152;2022-09-09T08:07:11;21.74;57.71
65972;SHT31;52726;48.852;9.152;2022-09-09T08:09:36;20.68;59.26
65972;SHT31;52726;48.852;9.152;2022-09-09T08:12:02;20.52;62.34
65972;SHT31;52726;48.852;9.152;2022-09-09T08:14:27;20.37;61.45
65972;SHT31;52726;48.852;9.152;2022-09-09T08:16:53;20.39;62.09
65972;SHT31;52726;48.852;9.152;2022-09-09T08:19:19;21.88;60.76
65972;SHT31;52726;48.852;9.152;2022-09-09T08:21:44;22.60;57.07
65972;SHT31;52726;48.852;9.152;2022-09-09T08:24:11;22.96;54.95
65972;SHT31;52726;48.852;9.152;2022-09-09T08:26:42;23.59;55.32
65972;SHT31;52726;48.852;9.152;2022-09-09T08:29:09;24.29;51.78
65972;SHT31;52726;48.852;9.152;2022-09-09T08:34:57;24.24;51.49
65972;SHT31;52726;48.852;9.152;2022-09-09T08:39:57;23.59;55.28
65972;SHT31;52726;48.852;9.152;2022-09-09T08:42:25;24.28;53.17
65972;SHT31;52726;48.852;9.152;2022-09-09T08:44:59;25.12;51.65
65972;SHT31;52726;48.852;9.152;2022-09-09T08:50:34;26.03;47.39
65972;SHT31;52726;48.852;9.152;2022-09-09T08:53:22;24.72;50.83
65972;SHT31;52726;48.852;9.152;2022-09-09T08:58:45;25.53;49.64
65972;SHT31;52726;48.852;9.152;2022-09-09T09:09:45;24.84;47.76
65972;SHT31;52726;48.852;9.152;2022-09-09T09:12:23;24.98;45.88
65972;SHT31;52726;48.852;9.152;2022-09-09T09:14:50;23.94;45.40
65972;SHT31;52726;48.852;9.152;2022-09-09T09:17:18;23.50;49.94
65972;SHT31;52726;48.852;9.152;2022-09-09T09:19:45;22.79;50.99
65972;SHT31;52726;48.852;9.152;2022-09-09T09:22:21;22.44;51.46
65972;SHT31;52726;48.852;9.152;2022-09-09T09:24:55;22.06;53.58
65972;SHT31;52726;48.852;9.152;2022-09-09T09:27:30;22.10;53.68
65972;SHT31;52726;48.852;9.152;2022-09-09T09:30:02;21.96;53.41
65972;SHT31;52726;48.852;9.152;2022-09-09T09:32:33;21.48;53.71
65972;SHT31;52726;48.852;9.152;2022-09-09T09:35:01;21.21;53.39
65972;SHT31;52726;48.852;9.152;2022-09-09T09:37:33;21.28;54.96
65972;SHT31;52726;48.852;9.152;2022-09-09T09:40:17;21.66;55.14
65972;SHT31;52726;48.852;9.152;2022-09-09T09:43:02;22.95;55.48
65972;SHT31;52726;48.852;9.152;2022-09-09T09:45:43;24.11;52.11
65972;SHT31;52726;48.852;9.152;2022-09-09T09:48:13;24.48;51.04
65972;SHT31;52726;48.852;9.152;2022-09-09T09:53:33;25.10;49.70
65972;SHT31;52726;48.852;9.152;2022-09-09T09:56:03;25.63;48.19
65972;SHT31;52726;48.852;9.152;2022-09-09T10:01:04;24.92;46.21
65972;SHT31;52726;48.852;9.152;2022-09-09T10:03:31;25.03;47.09
65972;SHT31;52726;48.852;9.152;2022-09-09T10:05:57;25.35;45.54
65972;SHT31;52726;48.852;9.152;2022-09-09T10:08:24;25.49;46.54
65972;SHT31;52726;48.852;9.152;2022-09-09T10:30:19;24.98;44.08
65972;SHT31;52726;48.852;9.152;2022-09-09T10:35:32;24.69;45.52
65972;SHT31;52726;48.852;9.152;2022-09-09T10:38:17;24.79;46.56
65972;SHT31;52726;48.852;9.152;2022-09-09T10:41:03;24.25;46.91
65972;SHT31;52726;48.852;9.152;2022-09-09T10:44:00;23.60;48.89
65972;SHT31;52726;48.852;9.152;2022-09-09T11:00:02;22.41;55.86
65972;SHT31;52726;48.852;9.152;2022-09-09T11:02:30;21.93;55.75
65972;SHT31;52726;48.852;9.152;2022-09-09T11:05:05;21.31;55.85
65972;SHT31;52726;48.852;9.152;2022-09-09T11:08:05;21.06;57.10
65972;SHT31;52726;48.852;9.152;2022-09-09T11:10:57;20.51;58.81
65972;SHT31;52726;48.852;9.152;2022-09-09T11:13:45;19.91;61.71
65972;SHT31;52726;48.852;9.152;2022-09-09T11:16:21;18.55;66.34
65972;SHT31;52726;48.852;9.152;2022-09-09T11:18:48;17.47;72.54
65972;SHT31;52726;48.852;9.152;2022-09-09T11:21:26;16.95;75.03
65972;SHT31;52726;48.852;9.152;2022-09-09T11:23:56;16.72;76.96
65972;SHT31;52726;48.852;9.152;2022-09-09T11:26:31;16.77;77.84
65972;SHT31;52726;48.852;9.152;2022-09-09T11:37:52;17.27;76.86
65972;SHT31;52726;48.852;9.152;2022-09-09T11:40:23;17.60;77.91
65972;SHT31;52726;48.852;9.152;2022-09-09T11:42:49;17.82;76.26
65972;SHT31;52726;48.852;9.152;2022-09-09T11:45:25;17.97;75.28
65972;SHT31;52726;48.852;9.152;2022-09-09T11:47:55;18.13;74.13
65972;SHT31;52726;48.852;9.152;2022-09-09T11:52:47;18.09;72.16
65972;SHT31;52726;48.852;9.152;2022-09-09T11:55:31;18.12;72.52
65972;SHT31;52726;48.852;9.152;2022-09-09T11:58:05;18.15;73.04
65972;SHT31;52726;48.852;9.152;2022-09-09T12:02:59;18.35;69.67
65972;SHT31;52726;48.852;9.152;2022-09-09T12:05:39;18.52;71.49
65972;SHT31;52726;48.852;9.152;2022-09-09T12:08:06;18.80;71.40
65972;SHT31;52726;48.852;9.152;2022-09-09T12:10:40;19.05;70.26
65972;SHT31;52726;48.852;9.152;2022-09-09T12:13:19;19.48;68.04
65972;SHT31;52726;48.852;9.152;2022-09-09T12:18:22;19.90;66.65
65972;SHT31;52726;48.852;9.152;2022-09-09T12:21:06;19.70;66.56
65972;SHT31;52726;48.852;9.152;2022-09-09T12:26:51;19.67;69.73
65972;SHT31;52726;48.852;9.152;2022-09-09T12:29:25;19.86;67.26
65972;SHT31;52726;48.852;9.152;2022-09-09T12:32:11;19.93;66.34
65972;SHT31;52726;48.852;9.152;2022-09-09T12:34:38;20.03;64.95
65972;SHT31;52726;48.852;9.152;2022-09-09T12:37:15;20.14;63.56
65972;SHT31;52726;48.852;9.152;2022-09-09T12:39:55;20.22;60.90
65972;SHT31;52726;48.852;9.152;2022-09-09T12:42:21;20.28;60.66
65972;SHT31;52726;48.852;9.152;2022-09-09T12:47:18;19.89;59.84
65972;SHT31;52726;48.852;9.152;2022-09-09T12:49:47;19.93;60.00
65972;SHT31;52726;48.852;9.152;2022-09-09T12:54:44;20.48;58.94
65972;SHT31;52726;48.852;9.152;2022-09-09T12:57:12;20.82;61.28
65972;SHT31;52726;48.852;9.152;2022-09-09T12:59:43;21.07;60.48
65972;SHT31;52726;48.852;9.152;2022-09-09T13:04:44;21.15;58.80
65972;SHT31;52726;48.852;9.152;2022-09-09T13:07:12;21.44;59.75
65972;SHT31;52726;48.852;9.152;2022-09-09T13:09:39;21.28;58.82
65972;SHT31;52726;48.852;9.152;2022-09-09T13:12:11;21.06;57.15
65972;SHT31;52726;48.852;9.152;2022-09-09T13:14:38;20.83;56.54
65972;SHT31;52726;48.852;9.152;2022-09-09T13:17:05;21.40;56.26
65972;SHT31;52726;48.852;9.152;2022-09-09T13:19:36;21.52;55.45
65972;SHT31;52726;48.852;9.152;2022-09-09T13:25:02;21.34;55.97
65972;SHT31;52726;48.852;9.152;2022-09-09T13:27:31;21.20;55.96
65972;SHT31;52726;48.852;9.152;2022-09-09T13:29:58;21.47;55.15
65972;SHT31;52726;48.852;9.152;2022-09-09T13:32:25;21.68;55.09
65972;SHT31;52726;48.852;9.152;2022-09-09T13:34:56;21.77;52.99
65972;SHT31;52726;48.852;9.152;2022-09-09T13:37:35;21.81;53.06
65972;SHT31;52726;48.852;9.152;2022-09-09T13:40:03;22.02;54.20
65972;SHT31;52726;48.852;9.152;2022-09-09T13:42:32;21.89;51.18
65972;SHT31;52726;48.852;9.152;2022-09-09T13:45:00;21.52;51.93
65972;SHT31;52726;48.852;9.152;2022-09-09T13:47:30;21.45;53.29
65972;SHT31;52726;48.852;9.152;2022-09-09T13:49:56;21.41;53.13
65972;SHT31;52726;48.852;9.152;2022-09-09T13:52:22;21.38;53.07
65972;SHT31;52726;48.852;9.152;2022-09-09T13:54:51;21.35;53.73
65972;SHT31;52726;48.852;9.152;2022-09-09T13:57:19;21.34;54.03
65972;SHT31;52726;48.852;9.152;2022-09-09T13:59:46;21.79;54.72
65972;SHT31;52726;48.852;9.152;2022-09-09T14:02:11;22.26;52.12
65972;SHT31;52726;48.852;9.152;2022-09-09T14:04:37;22.55;49.82
65972;SHT31;52726;48.852;9.152;2022-09-09T14:07:02;22.68;50.92
65972;SHT31;52726;48.852;9.152;2022-09-09T14:09:28;22.27;49.54
65972;SHT31;52726;48.852;9.152;2022-09-09T14:11:53;22.07;51.49
65972;SHT31;52726;48.852;9.152;2022-09-09T14:14:20;22.13;50.59
65972;SHT31;52726;48.852;9.152;2022-09-09T14:16:45;22.12;50.22
65972;SHT31;52726;48.852;9.152;2022-09-09T14:19:11;22.20;49.88
65972;SHT31;52726;48.852;9.152;2022-09-09T14:21:36;22.37;50.97
65972;SHT31;52726;48.852;9.152;2022-09-09T14:24:02;22.30;49.34
65972;SHT31;52726;48.852;9.152;2022-09-09T14:26:27;22.43;48.91
65972;SHT31;52726;48.852;9.152;2022-09-09T14:28:54;22.54;49.29
65972;SHT31;52726;48.852;9.152;2022-09-09T14:31:20;22.54;47.49
65972;SHT31;52726;48.852;9.152;2022-09-09T14:33:46;22.43;50.45
65972;SHT31;52726;48.852;9.152;2022-09-09T14:36:12;22.36;47.82
65972;SHT31;52726;48.852;9.152;2022-09-09T14:38:38;22.05;47.55
65972;SHT31;52726;48.852;9.152;2022-09-09T14:41:12;21.89;49.45
65972;SHT31;52726;48.852;9.152;2022-09-09T14:43:39;21.83;48.42
65972;SHT31;52726;48.852;9.152;2022-09-09T14:46:09;22.10;48.73
65972;SHT31;52726;48.852;9.152;2022-09-09T14:48:35;22.34;49.73
65972;SHT31;52726;48.852;9.152;2022-09-09T14:51:19;22.53;48.31
65972;SHT31;52726;48.852;9.152;2022-09-09T14:53:45;22.64;48.48
65972;SHT31;52726;48.852;9.152;2022-09-09T14:56:16;22.44;49.34
65972;SHT31;52726;48.852;9.152;2022-09-09T14:58:42;22.33;48.01
65972;SHT31;52726;48.852;9.152;2022-09-09T15:01:11;22.44;48.11
65972;SHT31;52726;48.852;9.152;2022-09-09T15:03:41;22.55;48.46
65972;SHT31;52726;48.852;9.152;2022-09-09T15:06:12;22.34;48.01
65972;SHT31;52726;48.852;9.152;2022-09-09T15:08:40;22.05;47.99
65972;SHT31;52726;48.852;9.152;2022-09-09T15:11:06;21.89;48.03
65972;SHT31;52726;48.852;9.152;2022-09-09T15:13:36;21.69;47.78
65972;SHT31;52726;48.852;9.152;2022-09-09T15:16:10;21.50;48.41
65972;SHT31;52726;48.852;9.152;2022-09-09T15:18:37;21.38;48.48
65972;SHT31;52726;48.852;9.152;2022-09-09T15:21:05;21.28;47.95
65972;SHT31;52726;48.852;9.152;2022-09-09T15:23:32;21.20;48.38
65972;SHT31;52726;48.852;9.152;2022-09-09T15:26:16;21.10;48.51
65972;SHT31;52726;48.852;9.152;2022-09-09T15:28:43;21.02;49.30
65972;SHT31;52726;48.852;9.152;2022-09-09T15:31:30;20.85;47.83
65972;SHT31;52726;48.852;9.152;2022-09-09T15:33:58;20.82;48.71
65972;SHT31;52726;48.852;9.152;2022-09-09T15:36:28;20.85;49.07
65972;SHT31;52726;48.852;9.152;2022-09-09T15:38:58;20.89;49.32
65972;SHT31;52726;48.852;9.152;2022-09-09T15:41:23;20.89;49.55
65972;SHT31;52726;48.852;9.152;2022-09-09T15:43:50;20.86;49.64
65972;SHT31;52726;48.852;9.152;2022-09-09T15:48:42;20.75;51.93
65972;SHT31;52726;48.852;9.152;2022-09-09T15:51:09;20.69;53.84
65972;SHT31;52726;48.852;9.152;2022-09-09T15:53:36;20.59;51.24
65972;SHT31;52726;48.852;9.152;2022-09-09T15:56:02;20.49;52.73
65972;SHT31;52726;48.852;9.152;2022-09-09T15:58:30;20.41;52.33
65972;SHT31;52726;48.852;9.152;2022-09-09T16:01:05;20.35;54.41
65972;SHT31;52726;48.852;9.152;2022-09-09T16:03:36;20.31;55.51
65972;SHT31;52726;48.852;9.152;2022-09-09T16:06:02;20.29;53.20
65972;SHT31;52726;48.852;9.152;2022-09-09T16:08:35;20.24;53.80
65972;SHT31;52726;48.852;9.152;2022-09-09T16:11:07;20.21;53.17
65972;SHT31;52726;48.852;9.152;2022-09-09T16:13:38;20.20;54.00
65972;SHT31;52726;48.852;9.152;2022-09-09T16:16:05;20.20;54.04
65972;SHT31;52726;48.852;9.152;2022-09-09T16:18:42;20.16;54.00
65972;SHT31;52726;48.852;9.152;2022-09-09T16:21:13;20.16;54.31
65972;SHT31;52726;48.852;9.152;2022-09-09T16:26:15;18.28;54.36
65972;SHT31;52726;48.852;9.152;2022-09-09T16:28:41;18.16;54.44
65972;SHT31;52726;48.852;9.152;2022-09-09T16:31:08;17.64;58.17
65972;SHT31;52726;48.852;9.152;2022-09-09T16:33:35;17.05;63.14
65972;SHT31;52726;48.852;9.152;2022-09-09T16:36:09;16.84;65.45
65972;SHT31;52726;48.852;9.152;2022-09-09T16:38:36;16.74;65.58
65972;SHT31;52726;48.852;9.152;2022-09-09T16:41:03;16.58;65.47
65972;SHT31;52726;48.852;9.152;2022-09-09T16:43:30;16.61;66.07
65972;SHT31;52726;48.852;9.152;2022-09-09T16:45:55;16.60;65.78
65972;SHT31;52726;48.852;9.152;2022-09-09T16:48:21;16.65;65.89
65972;SHT31;52726;48.852;9.152;2022-09-09T16:50:46;16.71;66.04
65972;SHT31;52726;48.852;9.152;2022-09-09T16:53:11;16.81;67.67
65972;SHT31;52726;48.852;9.152;2022-09-09T16:55:41;16.82;65.47
65972;SHT31;52726;48.852;9.152;2022-09-09T16:58:10;16.84;68.08
65972;SHT31;52726;48.852;9.152;2022-09-09T17:00:36;16.81;67.97
65972;SHT31;52726;48.852;9.152;2022-09-09T17:03:01;16.79;68.95
65972;SHT31;52726;48.852;9.152;2022-09-09T17:05:27;16.77;68.10
65972;SHT31;52726;48.852;9.152;2022-09-09T17:07:53;16.78;69.37
65972;SHT31;52726;48.852;9.152;2022-09-09T17:10:20;16.78;69.38
65972;SHT31;52726;48.852;9.152;2022-09-09T17:12:46;16.69;68.70
65972;SHT31;52726;48.852;9.152;2022-09-09T17:15:11;16.67;70.04
65972;SHT31;52726;48.852;9.152;2022-09-09T17:17:37;16.64;70.41
65972;SHT31;52726;48.852;9.152;2022-09-09T17:20:02;16.58;71.18
65972;SHT31;52726;48.852;9.152;2022-09-09T17:22:28;16.50;72.85
65972;SHT31;52726;48.852;9.152;2022-09-09T17:24:53;16.43;71.69
65972;SHT31;52726;48.852;9.152;2022-09-09T17:27:19;16.39;72.93
65972;SHT31;52726;48.852;9.152;2022-09-09T17:29:45;16.39;73.15
65972;SHT31;52726;48.852;9.152;2022-09-09T17:32:10;16.36;72.83
65972;SHT31;52726;48.852;9.152;2022-09-09T17:34:36;16.24;73.16
65972;SHT31;52726;48.852;9.152;2022-09-09T17:37:03;16.19;74.74
65972;SHT31;52726;48.852;9.152;2022-09-09T17:39:30;16.20;74.92
65972;SHT31;52726;48.852;9.152;2022-09-09T17:41:55;16.14;74.39
65972;SHT31;52726;48.852;9.152;2022-09-09T17:44:20;16.10;74.70
65972;SHT31;52726;48.852;9.152;2022-09-09T17:46:46;16.05;74.66
65972;SHT31;52726;48.852;9.152;2022-09-09T17:49:15;15.96;75.01
65972;SHT31;52726;48.852;9.152;2022-09-09T17:51:42;15.95;73.99
65972;SHT31;52726;48.852;9.152;2022-09-09T17:54:10;15.93;74.03
65972;SHT31;52726;48.852;9.152;2022-09-09T17:56:37;15.95;73.79
65972;SHT31;52726;48.852;9.152;2022-09-09T17:59:04;15.92;74.09
65972;SHT31;52726;48.852;9.152;2022-09-09T18:01:33;15.89;74.43
65972;SHT31;52726;48.852;9.152;2022-09-09T18:04:00;15.89;74.35
65972;SHT31;52726;48.852;9.152;2022-09-09T18:06:31;15.86;75.16
65972;SHT31;52726;48.852;9.152;2022-09-09T18:09:04;15.85;76.05
65972;SHT31;52726;48.852;9.152;2022-09-09T18:11:31;15.85;74.82